Time;durP1;ratioP1;P1;durP2;ratioP2;P2;SDS_P1;SDS_P2;PMS_P1;PMS_P2;Temp;Humidity;BMP_temperature;BMP_pressure;BME280_temperature;BME280_humidity;BME280_pressure;Samples;Min_cycle;Max_cycle;Signal;HPM_P1;HPM_P2
2022/01/28 10:12:32;;;;;;;11.80;11.17;;;11.90;99.10;;;;;;5063261;28;21251;-72
2022/01/28 10:15:03;;;;;;;11.93;11.33;;;12.60;94.90;;;;;;5063686;28;20442;-71
2022/01/28 10:17:52;;;;;;;11.83;11.23;;;12.10;95.40;;;;;;5063581;28;20444;-73
2022/01/28 10:20:19;;;;;;;11.27;10.80;;;11.10;95.60;;;;;;5063259;28;20448;-73
2022/01/28 10:22:53;;;;;;;11.60;11.00;;;10.70;97.60;;;;;;5063385;28;20447;-74
2022/01/28 10:25:24;;;;;;;12.63;11.93;;;10.30;98.70;;;;;;5063097;28;20448;-73
2022/01/28 10:28:00;;;;;;;11.80;10.80;;;10.10;99.40;;;;;;5063026;28;20452;-74
2022/01/28 10:30:27;;;;;;;12.07;11.27;;;10.10;99.90;;;;;;5063237;28;21008;-73
2022/01/28 10:33:15;;;;;;;11.73;11.00;;;10.20;99.90;;;;;;5063139;28;20452;-72
2022/01/28 10:35:51;;;;;;;12.20;11.70;;;10.30;99.10;;;;;;5063423;28;20505;-73
2022/01/28 10:38:31;;;;;;;11.53;10.93;;;10.00;99.30;;;;;;5063123;28;20451;-73
2022/01/28 10:41:12;;;;;;;10.60;10.20;;;10.40;99.40;;;;;;5063417;28;20447;-74
2022/01/28 10:43:45;;;;;;;11.33;10.60;;;10.40;98.10;;;;;;5062859;28;20447;-73
2022/01/28 10:46:11;;;;;;;11.90;11.40;;;10.10;98.10;;;;;;5063183;28;20496;-73
2022/01/28 10:48:53;;;;;;;12.30;11.70;;;9.80;99.90;;;;;;5062902;28;20451;-74
2022/01/28 10:51:21;;;;;;;11.57;10.97;;;10.50;98.90;;;;;;5062872;28;20486;-75
2022/01/28 10:54:07;;;;;;;12.67;11.77;;;11.40;97.10;;;;;;5063122;28;20504;-75
2022/01/28 10:56:47;;;;;;;13.37;12.37;;;13.20;94.20;;;;;;5062940;28;20451;-74
2022/01/28 10:59:19;;;;;;;12.07;11.57;;;13.10;92.20;;;;;;5062983;28;20508;-74
2022/01/28 11:01:46;;;;;;;11.30;10.60;;;12.60;92.60;;;;;;5062965;28;20452;-74
2022/01/28 11:04:15;;;;;;;11.50;10.90;;;12.70;93.30;;;;;;5062897;28;20470;-74
2022/01/28 11:06:43;;;;;;;11.60;10.90;;;12.80;92.50;;;;;;5062783;28;20474;-74
2022/01/28 11:09:11;;;;;;;13.07;11.90;;;12.50;92.30;;;;;;5062641;28;20455;-74
2022/01/28 11:11:39;;;;;;;9.83;9.33;;;12.00;92.50;;;;;;5058493;28;20901;-74
2022/01/28 11:14:06;;;;;;;12.20;10.87;;;11.60;94.20;;;;;;5049105;28;20451;-74
2022/01/28 11:16:35;;;;;;;11.57;10.97;;;11.30;94.40;;;;;;5048998;28;20957;-73
2022/01/28 11:19:02;;;;;;;10.77;10.10;;;11.00;94.60;;;;;;5049058;28;20456;-73
2022/01/28 11:21:35;;;;;;;11.70;11.10;;;10.40;96.20;;;;;;5049311;28;20527;-73
2022/01/28 11:24:09;;;;;;;11.47;10.67;;;10.00;96.50;;;;;;5049073;28;20452;-74
2022/01/28 11:26:44;;;;;;;11.10;10.67;;;9.90;97.80;;;;;;5048991;28;20925;-73
2022/01/28 11:29:13;;;;;;;10.60;9.90;;;9.60;97.50;;;;;;5048542;28;20448;-73
2022/01/28 11:31:47;;;;;;;9.60;9.20;;;9.30;97.60;;;;;;5048686;28;20498;-74
2022/01/28 11:34:19;;;;;;;10.57;10.17;;;9.40;97.80;;;;;;5048668;28;20450;-75
2022/01/28 11:36:46;;;;;;;12.53;11.97;;;10.50;96.10;;;;;;5048670;28;20458;-74
2022/01/28 11:39:30;;;;;;;11.60;10.87;;;11.10;93.70;;;;;;5048778;28;20930;-73
2022/01/28 11:42:06;;;;;;;10.90;10.50;;;10.90;94.20;;;;;;5048634;28;20448;-74
2022/01/28 11:44:54;;;;;;;14.17;12.57;;;10.60;94.50;;;;;;5048636;28;20456;-73
2022/01/28 11:47:24;;;;;;;10.37;9.97;;;10.40;95.00;;;;;;5042511;28;20474;-73
2022/01/28 11:50:00;;;;;;;11.83;10.80;;;10.20;95.60;;;;;;5048505;28;20451;-73
2022/01/28 11:52:29;;;;;;;12.63;12.13;;;10.30;95.40;;;;;;5048541;28;20452;-73
2022/01/28 11:54:57;;;;;;;11.43;10.73;;;10.00;95.20;;;;;;5048637;28;20457;-73
2022/01/28 11:57:27;;;;;;;10.30;9.90;;;9.80;96.20;;;;;;5048441;28;20465;-73
2022/01/28 12:00:19;;;;;;;10.03;9.63;;;9.70;96.70;;;;;;5048648;28;20455;-74
2022/01/28 12:02:48;;;;;;;10.30;9.80;;;9.70;96.90;;;;;;5048361;28;21022;-74
2022/01/28 12:06:03;;;;;;;10.20;9.70;;;10.40;95.70;;;;;;5048608;28;20477;-73
2022/01/28 12:08:31;;;;;;;11.90;10.97;;;11.10;94.30;;;;;;5034420;28;20575;-74
2022/01/28 12:11:01;;;;;;;12.40;11.60;;;11.30;93.20;;;;;;5048008;28;20496;-73
2022/01/28 12:13:33;;;;;;;12.27;11.37;;;10.40;94.30;;;;;;5048408;28;20452;-74
2022/01/28 12:16:11;;;;;;;12.67;11.90;;;9.90;96.10;;;;;;5048486;28;20811;-74
2022/01/28 12:18:54;;;;;;;11.10;10.60;;;9.40;96.90;;;;;;5048070;28;20867;-74
2022/01/28 12:21:23;;;;;;;11.17;10.47;;;9.10;98.30;;;;;;5048104;28;20706;-74
2022/01/28 12:23:51;;;;;;;11.73;11.00;;;9.20;98.10;;;;;;5046951;28;20452;-73
2022/01/28 12:26:19;;;;;;;11.57;10.80;;;9.30;97.60;;;;;;5048039;28;20464;-74
2022/01/28 12:28:52;;;;;;;11.50;10.90;;;9.60;97.70;;;;;;5048135;28;20456;-75
2022/01/28 12:31:30;;;;;;;11.77;11.23;;;10.50;95.60;;;;;;5047811;28;20493;-74
2022/01/28 12:34:01;;;;;;;11.83;11.33;;;11.50;93.60;;;;;;5047878;28;20551;-75
2022/01/28 12:36:30;;;;;;;12.63;11.57;;;12.20;91.60;;;;;;5048017;28;20455;-74
2022/01/28 12:39:06;;;;;;;14.03;13.13;;;12.70;90.70;;;;;;5047906;28;20464;-74
2022/01/28 12:41:41;;;;;;;12.20;11.33;;;13.40;89.60;;;;;;5047707;28;20483;-74
2022/01/28 12:44:08;;;;;;;11.70;10.97;;;13.30;88.50;;;;;;5047661;28;20546;-75
2022/01/28 12:46:38;;;;;;;11.40;10.90;;;13.00;88.60;;;;;;5047722;28;20479;-75
2022/01/28 12:49:10;;;;;;;12.33;11.17;;;12.50;90.00;;;;;;5047517;28;20822;-75
2022/01/28 12:51:39;;;;;;;11.17;10.67;;;11.70;91.00;;;;;;5047497;28;21094;-75
2022/01/28 12:54:06;;;;;;;10.30;9.70;;;11.70;91.60;;;;;;5047598;28;20444;-76
2022/01/28 12:56:35;;;;;;;11.30;10.70;;;11.40;92.10;;;;;;5047552;28;20946;-75
2022/01/28 12:59:02;;;;;;;11.00;10.20;;;11.30;91.90;;;;;;5047570;28;20452;-74
2022/01/28 13:01:30;;;;;;;13.27;11.90;;;11.10;93.00;;;;;;5047876;28;20440;-73
2022/01/28 13:04:10;;;;;;;12.70;12.00;;;10.80;93.90;;;;;;5047477;28;20450;-74
2022/01/28 13:06:59;;;;;;;11.60;10.90;;;10.70;94.20;;;;;;5047247;28;20453;-75
2022/01/28 13:09:27;;;;;;;11.00;10.50;;;10.20;95.10;;;;;;5047412;28;20541;-74
2022/01/28 13:11:55;;;;;;;12.37;11.60;;;9.90;96.50;;;;;;5046893;28;20496;-74
2022/01/28 13:14:29;;;;;;;14.87;12.00;;;9.30;98.60;;;;;;5047235;28;20471;-74
2022/01/28 13:16:56;;;;;;;12.23;11.30;;;8.90;99.90;;;;;;5047350;28;20452;-73
2022/01/28 13:19:27;;;;;;;12.60;11.90;;;8.70;99.90;;;;;;5047363;28;20834;-73
2022/01/28 13:21:54;;;;;;;13.50;12.60;;;8.70;99.90;;;;;;5047187;28;20535;-74
2022/01/28 13:24:23;;;;;;;12.40;11.50;;;8.80;99.90;;;;;;5047062;28;20448;-75
2022/01/28 13:26:55;;;;;;;13.50;11.40;;;8.80;99.90;;;;;;5046962;28;21014;-74
2022/01/28 13:29:32;;;;;;;11.57;10.87;;;9.00;99.90;;;;;;5046966;28;20455;-75
2022/01/28 13:32:00;;;;;;;12.83;11.83;;;8.90;99.90;;;;;;5047038;28;20544;-75
2022/01/28 13:34:28;;;;;;;12.77;11.70;;;8.60;99.90;;;;;;5046700;28;20484;-74
2022/01/28 13:36:58;;;;;;;12.37;11.57;;;8.60;99.90;;;;;;5046796;28;20448;-75
2022/01/28 13:39:27;;;;;;;12.13;11.43;;;8.60;99.90;;;;;;5046675;28;20950;-74
2022/01/28 13:42:12;;;;;;;11.40;10.60;;;8.50;99.90;;;;;;5046618;28;20456;-74
2022/01/28 13:44:42;;;;;;;13.80;12.60;;;8.50;99.90;;;;;;5046590;28;20456;-74
2022/01/28 13:47:09;;;;;;;12.83;11.10;;;8.60;99.90;;;;;;5046639;28;20952;-74
2022/01/28 13:49:39;;;;;;;11.90;11.20;;;8.70;99.90;;;;;;5046765;28;20448;-74
2022/01/28 13:52:18;;;;;;;11.80;11.00;;;8.70;99.90;;;;;;5046494;28;20828;-74
2022/01/28 13:54:45;;;;;;;13.30;12.30;;;8.50;99.90;;;;;;5046866;28;20986;-74
2022/01/28 13:57:12;;;;;;;12.07;11.27;;;8.30;99.90;;;;;;5046666;28;20478;-73
2022/01/28 13:59:42;;;;;;;12.53;11.67;;;8.00;99.90;;;;;;5046653;28;20801;-74
2022/01/28 14:02:16;;;;;;;14.03;12.97;;;7.80;99.90;;;;;;5046294;28;20470;-73
2022/01/28 14:04:47;;;;;;;13.40;12.53;;;7.80;99.90;;;;;;5046905;28;20455;-74
2022/01/28 14:07:17;;;;;;;12.30;11.50;;;7.80;99.90;;;;;;5046774;28;20449;-73
2022/01/28 14:09:47;;;;;;;12.27;11.60;;;7.70;99.90;;;;;;5046884;28;20459;-73
2022/01/28 14:12:34;;;;;;;11.43;10.80;;;7.70;99.90;;;;;;5046450;28;20993;-74
2022/01/28 14:15:10;;;;;;;12.10;11.10;;;7.70;99.90;;;;;;5046722;28;20495;-74
2022/01/28 14:17:37;;;;;;;12.23;11.43;;;7.80;99.90;;;;;;5046327;28;20459;-73
2022/01/28 14:20:07;;;;;;;11.80;11.00;;;7.90;99.90;;;;;;5046264;28;20454;-73
2022/01/28 14:22:34;;;;;;;14.00;12.37;;;8.00;99.90;;;;;;5046397;28;20445;-74
2022/01/28 14:25:01;;;;;;;12.90;12.10;;;8.10;99.90;;;;;;5046583;28;20967;-73
2022/01/28 14:30:18;;;;;;;12.30;11.60;;;7.90;99.90;;;;;;5046134;28;21257;-73
2022/01/28 14:32:45;;;;;;;11.60;10.90;;;7.80;99.90;;;;;;5046400;28;20488;-74
2022/01/28 14:35:14;;;;;;;11.10;10.50;;;7.80;99.90;;;;;;5046334;28;20450;-73
2022/01/28 14:37:41;;;;;;;13.03;12.13;;;7.80;99.90;;;;;;5046274;28;20499;-73
2022/01/28 14:40:09;;;;;;;11.60;10.80;;;7.70;99.90;;;;;;5046127;28;20511;-74
2022/01/28 14:42:36;;;;;;;11.13;10.43;;;7.70;99.90;;;;;;5045965;28;21174;-75
2022/01/28 14:45:04;;;;;;;13.13;12.13;;;7.70;99.90;;;;;;5046006;28;21047;-74
2022/01/28 14:47:30;;;;;;;11.70;11.10;;;7.60;99.90;;;;;;5047896;28;20845;-74
2022/01/28 14:49:57;;;;;;;11.17;10.37;;;7.50;99.90;;;;;;5049654;28;20461;-75
2022/01/28 14:52:29;;;;;;;13.20;11.97;;;7.40;99.90;;;;;;5049568;28;20482;-74
2022/01/28 14:54:56;;;;;;;13.57;12.27;;;7.50;99.90;;;;;;5049474;28;20456;-73
2022/01/28 14:57:25;;;;;;;12.13;11.37;;;7.60;99.90;;;;;;5049401;28;20451;-73
2022/01/28 14:59:52;;;;;;;11.97;11.10;;;7.60;99.90;;;;;;5049324;28;20746;-74
2022/01/28 15:02:24;;;;;;;12.77;11.97;;;7.60;99.90;;;;;;5049179;28;20464;-75
2022/01/28 15:04:51;;;;;;;11.73;11.10;;;7.50;99.90;;;;;;5049443;28;20508;-75
2022/01/28 15:07:19;;;;;;;11.57;10.80;;;7.30;99.90;;;;;;5049210;28;20831;-74
2022/01/28 15:09:51;;;;;;;10.63;10.10;;;7.20;99.90;;;;;;5049416;28;20455;-73
2022/01/28 15:12:18;;;;;;;10.70;10.07;;;7.20;99.90;;;;;;5049020;28;20593;-74
2022/01/28 15:14:44;;;;;;;11.53;10.83;;;7.30;99.90;;;;;;5049511;28;20859;-74
2022/01/28 15:17:11;;;;;;;11.70;10.90;;;7.40;99.90;;;;;;5049005;28;20813;-74
2022/01/28 15:19:38;;;;;;;11.17;10.50;;;7.30;99.90;;;;;;5049013;28;20456;-74
2022/01/28 15:22:05;;;;;;;11.70;11.10;;;7.20;99.90;;;;;;5048909;28;20481;-74
2022/01/28 15:24:32;;;;;;;11.70;11.00;;;7.20;99.90;;;;;;5048931;28;20938;-74
2022/01/28 15:27:01;;;;;;;13.77;12.43;;;7.10;99.90;;;;;;5049123;28;20878;-74
2022/01/28 15:29:46;;;;;;;12.40;11.30;;;7.00;99.90;;;;;;5048853;28;20454;-74
2022/01/28 15:35:19;;;;;;;12.53;11.83;;;6.70;99.90;;;;;;5048836;28;20421;-74
2022/01/28 15:37:46;;;;;;;13.23;12.27;;;6.60;99.90;;;;;;5048982;28;21026;-73
2022/01/28 15:40:13;;;;;;;12.80;11.90;;;6.60;99.90;;;;;;5048753;28;20458;-73
2022/01/28 15:42:41;;;;;;;11.43;10.80;;;6.50;99.90;;;;;;5048470;28;20456;-74
2022/01/28 15:45:09;;;;;;;12.37;11.60;;;6.50;99.90;;;;;;5048559;28;20463;-74
2022/01/28 15:47:35;;;;;;;12.23;11.27;;;6.50;99.90;;;;;;5048421;28;20453;-74
2022/01/28 15:50:02;;;;;;;12.37;11.47;;;6.40;99.90;;;;;;5048531;28;20491;-74
2022/01/28 15:52:30;;;;;;;12.53;11.70;;;6.40;99.90;;;;;;5048789;28;20494;-74
2022/01/28 15:54:56;;;;;;;12.90;11.97;;;6.50;99.90;;;;;;5048624;28;20890;-74
2022/01/28 15:57:23;;;;;;;11.77;11.07;;;6.40;99.90;;;;;;5048525;28;21066;-74
2022/01/28 15:59:51;;;;;;;12.70;11.93;;;6.40;99.90;;;;;;5048255;28;20508;-74
2022/01/28 16:02:18;;;;;;;11.80;11.10;;;6.30;99.90;;;;;;5048158;28;20468;-74
2022/01/28 16:04:45;;;;;;;12.57;11.87;;;6.30;99.90;;;;;;5048494;28;20450;-74
2022/01/28 16:07:14;;;;;;;13.27;12.43;;;6.30;99.90;;;;;;5048170;28;20452;-74
2022/01/28 16:09:48;;;;;;;11.83;11.03;;;6.30;99.90;;;;;;5048296;28;20563;-73
2022/01/28 16:12:32;;;;;;;11.43;10.70;;;6.30;99.90;;;;;;5048190;28;20924;-75
2022/01/28 16:15:07;;;;;;;11.77;11.07;;;6.30;99.90;;;;;;5048611;28;20457;-73
2022/01/28 16:17:38;;;;;;;12.00;11.30;;;6.30;99.90;;;;;;5047866;28;20456;-73
2022/01/28 16:20:05;;;;;;;12.07;11.03;;;6.20;99.90;;;;;;5047974;28;21022;-74
2022/01/28 16:22:33;;;;;;;12.13;11.33;;;6.30;99.90;;;;;;5048162;28;20507;-74
2022/01/28 16:25:00;;;;;;;13.50;12.70;;;6.20;99.90;;;;;;5048292;28;20997;-73
2022/01/28 16:27:26;;;;;;;12.53;11.33;;;6.20;99.90;;;;;;5048112;28;20445;-73
2022/01/28 16:29:53;;;;;;;11.90;11.20;;;6.20;99.90;;;;;;5047956;28;20451;-72
2022/01/28 16:32:22;;;;;;;13.50;12.50;;;6.10;99.90;;;;;;5047709;28;20492;-73
2022/01/28 16:34:49;;;;;;;12.30;11.50;;;6.10;99.90;;;;;;5048065;28;20456;-73
2022/01/28 16:37:16;;;;;;;12.57;11.40;;;6.00;99.90;;;;;;5048056;28;20474;-74
2022/01/28 16:39:47;;;;;;;12.37;11.57;;;6.00;99.90;;;;;;5047945;28;20452;-72
2022/01/28 16:42:20;;;;;;;11.23;10.63;;;6.10;99.90;;;;;;5048047;28;20448;-74
2022/01/28 16:44:53;;;;;;;11.83;11.00;;;6.10;99.90;;;;;;5047970;28;20449;-72
2022/01/28 16:47:22;;;;;;;12.97;12.23;;;6.20;99.90;;;;;;5047576;28;20452;-74
2022/01/28 16:49:49;;;;;;;13.03;12.13;;;6.00;99.90;;;;;;5047798;28;20451;-74
2022/01/28 16:52:16;;;;;;;13.80;12.77;;;6.10;99.90;;;;;;5047930;28;20480;-74
2022/01/28 16:54:42;;;;;;;12.53;11.63;;;6.00;99.90;;;;;;5047771;28;20842;-74
2022/01/28 16:57:10;;;;;;;12.87;11.87;;;6.00;99.90;;;;;;5047391;28;20552;-76
2022/01/28 16:59:39;;;;;;;13.97;12.93;;;6.00;99.90;;;;;;5047607;28;20868;-76
2022/01/28 17:02:07;;;;;;;13.60;12.40;;;6.00;99.90;;;;;;5047275;28;20476;-75
2022/01/28 17:04:35;;;;;;;17.47;14.00;;;6.00;99.90;;;;;;5047415;28;20456;-75
2022/01/28 17:07:01;;;;;;;15.13;13.70;;;5.90;99.90;;;;;;5047471;28;20951;-75
2022/01/28 17:09:37;;;;;;;13.80;12.70;;;5.90;99.90;;;;;;5046985;28;20459;-75
2022/01/28 17:12:28;;;;;;;14.40;13.10;;;5.90;99.90;;;;;;5047312;28;20538;-75
2022/01/28 17:14:54;;;;;;;13.70;12.70;;;6.00;99.90;;;;;;5047188;28;20536;-75
2022/01/28 17:17:21;;;;;;;15.33;14.23;;;6.00;99.90;;;;;;5047167;28;20467;-75
2022/01/28 17:19:49;;;;;;;14.27;13.17;;;5.90;99.90;;;;;;5047242;28;20480;-73
2022/01/28 17:22:15;;;;;;;13.50;12.40;;;5.90;99.90;;;;;;5047608;28;20505;-73
2022/01/28 17:24:42;;;;;;;15.23;13.83;;;5.90;99.90;;;;;;5047296;28;20856;-74
2022/01/28 17:27:10;;;;;;;14.60;13.50;;;5.80;99.90;;;;;;5047168;28;20452;-73
2022/01/28 17:29:37;;;;;;;14.43;13.20;;;5.80;99.90;;;;;;5046903;28;20432;-72
2022/01/28 17:32:05;;;;;;;14.67;13.47;;;5.80;99.90;;;;;;5046834;28;20828;-74
2022/01/28 17:34:32;;;;;;;14.73;13.53;;;5.90;99.90;;;;;;5046949;28;20452;-74
2022/01/28 17:37:00;;;;;;;14.77;13.70;;;5.90;99.90;;;;;;5047111;28;20461;-74
2022/01/28 17:39:27;;;;;;;14.00;12.97;;;5.80;99.90;;;;;;5047106;28;20453;-74
2022/01/28 17:41:54;;;;;;;14.30;13.13;;;5.80;99.90;;;;;;5046821;28;20456;-75
2022/01/28 17:44:20;;;;;;;15.63;14.40;;;5.80;99.90;;;;;;5046790;28;20468;-74
2022/01/28 17:46:47;;;;;;;14.70;13.70;;;5.80;99.90;;;;;;5046661;28;20462;-74
2022/01/28 17:49:14;;;;;;;13.97;12.90;;;5.80;99.90;;;;;;5047035;28;20455;-74
2022/01/28 17:51:41;;;;;;;20.33;14.30;;;5.80;99.90;;;;;;5046855;28;20513;-75
2022/01/28 17:54:09;;;;;;;14.70;13.37;;;5.80;99.90;;;;;;5046561;28;20886;-74
2022/01/28 17:56:36;;;;;;;14.50;13.20;;;5.80;99.90;;;;;;5046678;28;20737;-74
2022/01/28 17:59:02;;;;;;;14.90;13.50;;;5.80;99.90;;;;;;5046677;28;20460;-73
